Karawa Airport


Codes: FZFS/
Name: Karawa Airport
City: Karawa
Country: Congo [DRC]
Elevation: 1640 ft.

Photos at Karawa Airport


   Photos courtesy of SpottingLog. You can add your own sightings and photos by signing up for a free trial today.



No photos found.

Weather at Karawa Airport


Time (UTC)DescriptionTempratureWindCloud coverageVisibilityPressureHumidity
23-May-2024 21:00Light Rain22°C0 mph, E91%10000m1011hPa95%
24-May-2024 00:00Light Rain22°C2 mph, SE94%10000m1011hPa96%
24-May-2024 03:00Light Rain22°C2 mph, N99%10000m1012hPa98%
24-May-2024 06:00Light Rain22°C2 mph, SW99%10000m1014hPa97%
24-May-2024 09:00Overcast Clouds29°C2 mph, S88%10000m1013hPa65%
24-May-2024 12:00Light Rain29°C2 mph, E89%10000m1010hPa72%
24-May-2024 15:00Light Rain30°C2 mph, W69%10000m1008hPa64%
24-May-2024 18:00Light Rain23°C2 mph, W55%10000m1010hPa93%
24-May-2024 21:00Light Rain22°C2 mph, S51%10000m1012hPa94%
25-May-2024 00:00Light Rain21°C2 mph, S74%10000m1012hPa94%
25-May-2024 03:00Overcast Clouds21°C2 mph, SW97%10000m1013hPa96%
25-May-2024 06:00Overcast Clouds23°C2 mph, SW99%10000m1015hPa90%
25-May-2024 09:00Overcast Clouds27°C4 mph, W98%10000m1015hPa69%
25-May-2024 12:00Light Rain26°C0 mph, SW99%10000m1012hPa77%
25-May-2024 15:00Light Rain27°C0 mph, NW91%10000m1011hPa75%
25-May-2024 18:00Overcast Clouds24°C2 mph, N86%10000m1012hPa88%
25-May-2024 21:00Scattered Clouds22°C0 mph, W36%10000m1013hPa95%
26-May-2024 00:00Broken Clouds22°C2 mph, W68%10000m1012hPa96%
26-May-2024 03:00Light Rain22°C0 mph, S100%10000m1013hPa96%
26-May-2024 06:00Light Rain24°C2 mph, S98%10000m1014hPa86%
26-May-2024 09:00Overcast Clouds26°C0 mph, SW100%10000m1015hPa76%
26-May-2024 12:00Overcast Clouds29°C2 mph, SW99%10000m1012hPa63%
26-May-2024 15:00Overcast Clouds30°C4 mph, SW95%10000m1010hPa51%
26-May-2024 18:00Light Rain24°C0 mph, W91%10000m1011hPa80%
26-May-2024 21:00Overcast Clouds23°C0 mph, NE100%10000m1013hPa85%
27-May-2024 00:00Light Rain22°C2 mph, S100%10000m1012hPa91%
27-May-2024 03:00Overcast Clouds22°C2 mph, E100%10000m1012hPa92%
27-May-2024 06:00Overcast Clouds24°C2 mph, SE88%10000m1013hPa85%
27-May-2024 09:00Overcast Clouds31°C4 mph, SE85%10000m1013hPa55%
27-May-2024 12:00Broken Clouds35°C4 mph, SE81%10000m1010hPa38%
27-May-2024 15:00Overcast Clouds30°C2 mph, NE85%10000m1008hPa56%
27-May-2024 18:00Light Rain25°C2 mph, S79%10000m1010hPa75%
27-May-2024 21:00Light Rain24°C2 mph, S41%10000m1012hPa82%
28-May-2024 00:00Light Rain23°C2 mph, W71%10000m1011hPa88%
28-May-2024 03:00Overcast Clouds23°C2 mph, S100%10000m1011hPa88%
28-May-2024 06:00Overcast Clouds24°C4 mph, S99%10000m1013hPa84%
28-May-2024 09:00Overcast Clouds32°C4 mph, S86%10000m1013hPa50%
28-May-2024 12:00Broken Clouds36°C4 mph, S79%10000m1009hPa37%
28-May-2024 15:00Overcast Clouds33°C2 mph, S93%10000m1007hPa47%
28-May-2024 18:00Light Rain26°C4 mph, S96%10000m1009hPa75%